sensor_id;sensor_type;location;lat;lon;timestamp;temperature;humidity
50969;DHT22;36982;51.474;7.228;2023-02-26T00:02:22;0.70;13.90
50969;DHT22;36982;51.474;7.228;2023-02-26T00:04:47;0.70;11.60
50969;DHT22;36982;51.474;7.228;2023-02-26T00:07:13;0.70;12.70
50969;DHT22;36982;51.474;7.228;2023-02-26T00:09:38;0.70;9.80
50969;DHT22;36982;51.474;7.228;2023-02-26T00:12:04;0.60;9.50
50969;DHT22;36982;51.474;7.228;2023-02-26T00:14:30;0.60;14.20
50969;DHT22;36982;51.474;7.228;2023-02-26T00:19:40;0.60;12.70
50969;DHT22;36982;51.474;7.228;2023-02-26T00:22:05;0.60;12.50
50969;DHT22;36982;51.474;7.228;2023-02-26T00:24:31;0.60;11.90
50969;DHT22;36982;51.474;7.228;2023-02-26T00:26:57;0.60;12.20
50969;DHT22;36982;51.474;7.228;2023-02-26T00:29:23;0.60;9.70
50969;DHT22;36982;51.474;7.228;2023-02-26T00:31:49;0.50;12.30
50969;DHT22;36982;51.474;7.228;2023-02-26T00:34:15;0.50;12.30
50969;DHT22;36982;51.474;7.228;2023-02-26T00:36:45;0.50;15.90
50969;DHT22;36982;51.474;7.228;2023-02-26T00:42:15;0.60;12.70
50969;DHT22;36982;51.474;7.228;2023-02-26T00:44:41;0.60;11.40
50969;DHT22;36982;51.474;7.228;2023-02-26T00:55:26;0.70;4.20
50969;DHT22;36982;51.474;7.228;2023-02-26T00:57:52;0.70;2.70
50969;DHT22;36982;51.474;7.228;2023-02-26T01:00:18;0.70;1.00
50969;DHT22;36982;51.474;7.228;2023-02-26T01:02:44;0.80;1.00
50969;DHT22;36982;51.474;7.228;2023-02-26T01:05:10;0.80;1.00
50969;DHT22;36982;51.474;7.228;2023-02-26T01:07:43;0.80;1.00
50969;DHT22;36982;51.474;7.228;2023-02-26T01:10:10;0.90;1.00
50969;DHT22;36982;51.474;7.228;2023-02-26T01:12:36;0.90;1.00
50969;DHT22;36982;51.474;7.228;2023-02-26T01:15:04;0.90;1.00
50969;DHT22;36982;51.474;7.228;2023-02-26T01:20:08;0.90;1.00
50969;DHT22;36982;51.474;7.228;2023-02-26T01:22:41;0.90;1.00
50969;DHT22;36982;51.474;7.228;2023-02-26T01:25:14;0.90;1.00
50969;DHT22;36982;51.474;7.228;2023-02-26T01:27:40;0.90;1.00
50969;DHT22;36982;51.474;7.228;2023-02-26T01:30:07;0.90;1.00
50969;DHT22;36982;51.474;7.228;2023-02-26T01:38:40;0.90;1.00
50969;DHT22;36982;51.474;7.228;2023-02-26T01:46:38;0.70;1.00
50969;DHT22;36982;51.474;7.228;2023-02-26T01:49:14;0.80;1.00
50969;DHT22;36982;51.474;7.228;2023-02-26T01:54:13;0.70;1.00
50969;DHT22;36982;51.474;7.228;2023-02-26T01:56:39;0.60;1.00
50969;DHT22;36982;51.474;7.228;2023-02-26T01:59:09;0.60;1.00
50969;DHT22;36982;51.474;7.228;2023-02-26T02:01:37;0.60;1.00
50969;DHT22;36982;51.474;7.228;2023-02-26T02:04:05;0.60;1.00
50969;DHT22;36982;51.474;7.228;2023-02-26T02:06:32;0.60;1.00
50969;DHT22;36982;51.474;7.228;2023-02-26T02:08:58;0.60;1.00
50969;DHT22;36982;51.474;7.228;2023-02-26T02:11:24;0.50;1.00
50969;DHT22;36982;51.474;7.228;2023-02-26T02:17:00;0.50;1.00
50969;DHT22;36982;51.474;7.228;2023-02-26T02:25:22;0.50;1.00
50969;DHT22;36982;51.474;7.228;2023-02-26T02:39:28;0.30;1.00
50969;DHT22;36982;51.474;7.228;2023-02-26T02:41:59;0.30;1.00
50969;DHT22;36982;51.474;7.228;2023-02-26T02:44:28;0.30;1.00
50969;DHT22;36982;51.474;7.228;2023-02-26T02:46:57;0.20;1.00
50969;DHT22;36982;51.474;7.228;2023-02-26T02:49:28;0.30;1.00
50969;DHT22;36982;51.474;7.228;2023-02-26T02:52:04;0.30;1.00
50969;DHT22;36982;51.474;7.228;2023-02-26T02:54:47;0.20;1.00
50969;DHT22;36982;51.474;7.228;2023-02-26T02:57:29;0.30;1.00
50969;DHT22;36982;51.474;7.228;2023-02-26T03:00:00;0.30;1.00
50969;DHT22;36982;51.474;7.228;2023-02-26T03:05:00;0.30;1.00
50969;DHT22;36982;51.474;7.228;2023-02-26T03:07:28;0.20;1.00
50969;DHT22;36982;51.474;7.228;2023-02-26T03:09:55;0.20;1.00
50969;DHT22;36982;51.474;7.228;2023-02-26T03:12:21;0.30;1.00
50969;DHT22;36982;51.474;7.228;2023-02-26T03:14:46;0.20;1.00
50969;DHT22;36982;51.474;7.228;2023-02-26T03:17:32;0.30;1.00
50969;DHT22;36982;51.474;7.228;2023-02-26T03:20:12;0.30;1.00
50969;DHT22;36982;51.474;7.228;2023-02-26T03:25:42;0.10;1.00
50969;DHT22;36982;51.474;7.228;2023-02-26T03:28:22;0.10;1.00
50969;DHT22;36982;51.474;7.228;2023-02-26T03:31:08;0.10;1.00
50969;DHT22;36982;51.474;7.228;2023-02-26T03:41:18;0.00;1.00
50969;DHT22;36982;51.474;7.228;2023-02-26T03:43:52;0.00;1.00
50969;DHT22;36982;51.474;7.228;2023-02-26T03:46:25;0.00;1.00
50969;DHT22;36982;51.474;7.228;2023-02-26T03:48:53;0.00;1.00
50969;DHT22;36982;51.474;7.228;2023-02-26T03:51:20;0.00;1.00
50969;DHT22;36982;51.474;7.228;2023-02-26T03:56:46;0.00;1.00
50969;DHT22;36982;51.474;7.228;2023-02-26T03:59:13;-0.10;1.00
50969;DHT22;36982;51.474;7.228;2023-02-26T04:01:53;-0.20;1.00
50969;DHT22;36982;51.474;7.228;2023-02-26T04:04:50;-0.20;1.00
50969;DHT22;36982;51.474;7.228;2023-02-26T04:07:18;-0.20;1.00
50969;DHT22;36982;51.474;7.228;2023-02-26T04:09:46;-0.20;1.00
50969;DHT22;36982;51.474;7.228;2023-02-26T04:12:12;-0.20;3.50
50969;DHT22;36982;51.474;7.228;2023-02-26T04:14:38;-0.30;4.90
50969;DHT22;36982;51.474;7.228;2023-02-26T04:17:04;-0.30;7.40
50969;DHT22;36982;51.474;7.228;2023-02-26T04:19:30;-0.30;9.80
50969;DHT22;36982;51.474;7.228;2023-02-26T04:21:56;-0.30;11.50
50969;DHT22;36982;51.474;7.228;2023-02-26T04:24:22;-0.30;9.10
50969;DHT22;36982;51.474;7.228;2023-02-26T04:26:47;-0.30;9.40
50969;DHT22;36982;51.474;7.228;2023-02-26T04:29:13;-0.40;10.00
50969;DHT22;36982;51.474;7.228;2023-02-26T04:31:40;-0.40;14.10
50969;DHT22;36982;51.474;7.228;2023-02-26T04:34:06;-0.40;15.40
50969;DHT22;36982;51.474;7.228;2023-02-26T04:36:31;-0.50;15.80
50969;DHT22;36982;51.474;7.228;2023-02-26T04:38:57;-0.40;14.40
50969;DHT22;36982;51.474;7.228;2023-02-26T04:41:23;-0.50;18.90
50969;DHT22;36982;51.474;7.228;2023-02-26T04:43:48;-0.50;15.10
50969;DHT22;36982;51.474;7.228;2023-02-26T04:46:14;-0.40;17.30
50969;DHT22;36982;51.474;7.228;2023-02-26T04:48:39;-0.40;14.20
50969;DHT22;36982;51.474;7.228;2023-02-26T04:51:05;-0.40;18.70
50969;DHT22;36982;51.474;7.228;2023-02-26T04:53:31;-0.40;15.50
50969;DHT22;36982;51.474;7.228;2023-02-26T04:55:56;-0.40;13.40
50969;DHT22;36982;51.474;7.228;2023-02-26T04:58:22;-0.40;15.00
50969;DHT22;36982;51.474;7.228;2023-02-26T05:00:49;-0.50;16.10
50969;DHT22;36982;51.474;7.228;2023-02-26T05:03:15;-0.40;18.10
50969;DHT22;36982;51.474;7.228;2023-02-26T05:05:41;-0.50;19.60
50969;DHT22;36982;51.474;7.228;2023-02-26T05:08:07;-0.40;14.10
50969;DHT22;36982;51.474;7.228;2023-02-26T05:10:32;-0.50;18.40
50969;DHT22;36982;51.474;7.228;2023-02-26T05:12:58;-0.60;19.20
50969;DHT22;36982;51.474;7.228;2023-02-26T05:15:24;-0.50;17.30
50969;DHT22;36982;51.474;7.228;2023-02-26T05:17:49;-0.60;17.80
50969;DHT22;36982;51.474;7.228;2023-02-26T05:20:15;-0.60;18.80
50969;DHT22;36982;51.474;7.228;2023-02-26T05:22:41;-0.70;21.70
50969;DHT22;36982;51.474;7.228;2023-02-26T05:25:08;-0.70;28.10
50969;DHT22;36982;51.474;7.228;2023-02-26T05:27:34;-0.60;21.40
50969;DHT22;36982;51.474;7.228;2023-02-26T05:30:00;-0.60;22.10
50969;DHT22;36982;51.474;7.228;2023-02-26T05:32:26;-0.60;18.60
50969;DHT22;36982;51.474;7.228;2023-02-26T05:34:51;-0.70;17.60
50969;DHT22;36982;51.474;7.228;2023-02-26T05:37:17;-0.70;17.50
50969;DHT22;36982;51.474;7.228;2023-02-26T05:39:42;-0.70;17.60
50969;DHT22;36982;51.474;7.228;2023-02-26T05:42:08;-0.70;19.70
50969;DHT22;36982;51.474;7.228;2023-02-26T05:44:34;-0.80;21.70
50969;DHT22;36982;51.474;7.228;2023-02-26T05:47:00;-0.80;22.80
50969;DHT22;36982;51.474;7.228;2023-02-26T05:49:26;-0.80;23.20
50969;DHT22;36982;51.474;7.228;2023-02-26T05:51:52;-0.70;21.80
50969;DHT22;36982;51.474;7.228;2023-02-26T05:54:18;-0.80;23.30
50969;DHT22;36982;51.474;7.228;2023-02-26T05:56:43;-0.80;23.60
50969;DHT22;36982;51.474;7.228;2023-02-26T05:59:09;-0.90;27.40
50969;DHT22;36982;51.474;7.228;2023-02-26T06:01:35;-0.80;23.40
50969;DHT22;36982;51.474;7.228;2023-02-26T06:04:05;-0.90;25.30
50969;DHT22;36982;51.474;7.228;2023-02-26T06:06:31;-0.90;21.80
50969;DHT22;36982;51.474;7.228;2023-02-26T06:08:56;-1.00;26.80
50969;DHT22;36982;51.474;7.228;2023-02-26T06:11:22;-0.90;25.60
50969;DHT22;36982;51.474;7.228;2023-02-26T06:13:48;-0.90;25.90
50969;DHT22;36982;51.474;7.228;2023-02-26T06:16:14;-0.90;26.50
50969;DHT22;36982;51.474;7.228;2023-02-26T06:18:39;-0.90;25.00
50969;DHT22;36982;51.474;7.228;2023-02-26T06:21:05;-0.90;26.70
50969;DHT22;36982;51.474;7.228;2023-02-26T06:23:31;-0.90;22.60
50969;DHT22;36982;51.474;7.228;2023-02-26T06:25:56;-0.90;22.10
50969;DHT22;36982;51.474;7.228;2023-02-26T06:28:24;-0.90;21.90
50969;DHT22;36982;51.474;7.228;2023-02-26T06:30:51;-1.00;23.10
50969;DHT22;36982;51.474;7.228;2023-02-26T06:33:17;-0.90;23.10
50969;DHT22;36982;51.474;7.228;2023-02-26T06:35:43;-0.90;27.80
50969;DHT22;36982;51.474;7.228;2023-02-26T06:38:09;-0.90;21.80
50969;DHT22;36982;51.474;7.228;2023-02-26T06:40:34;-0.90;20.50
50969;DHT22;36982;51.474;7.228;2023-02-26T06:43:00;-1.00;21.10
50969;DHT22;36982;51.474;7.228;2023-02-26T06:45:25;-1.00;23.30
50969;DHT22;36982;51.474;7.228;2023-02-26T06:47:51;-1.00;24.50
50969;DHT22;36982;51.474;7.228;2023-02-26T06:50:17;-0.90;17.20
50969;DHT22;36982;51.474;7.228;2023-02-26T06:52:43;-1.00;20.30
50969;DHT22;36982;51.474;7.228;2023-02-26T06:55:09;-1.00;24.30
50969;DHT22;36982;51.474;7.228;2023-02-26T06:57:34;-1.00;23.00
50969;DHT22;36982;51.474;7.228;2023-02-26T07:00:00;-0.90;27.00
50969;DHT22;36982;51.474;7.228;2023-02-26T07:02:26;-0.90;19.70
50969;DHT22;36982;51.474;7.228;2023-02-26T07:04:52;-0.90;20.00
50969;DHT22;36982;51.474;7.228;2023-02-26T07:07:18;-0.90;20.60
50969;DHT22;36982;51.474;7.228;2023-02-26T07:09:44;-0.90;19.60
50969;DHT22;36982;51.474;7.228;2023-02-26T07:12:09;-0.90;20.70
50969;DHT22;36982;51.474;7.228;2023-02-26T07:14:36;-0.90;18.40
50969;DHT22;36982;51.474;7.228;2023-02-26T07:17:02;-1.00;24.60
50969;DHT22;36982;51.474;7.228;2023-02-26T07:19:27;-0.90;21.10
50969;DHT22;36982;51.474;7.228;2023-02-26T07:21:53;-0.90;22.80
50969;DHT22;36982;51.474;7.228;2023-02-26T07:24:20;-1.00;23.90
50969;DHT22;36982;51.474;7.228;2023-02-26T07:26:46;-0.90;23.60
50969;DHT22;36982;51.474;7.228;2023-02-26T07:29:11;-0.90;26.60
50969;DHT22;36982;51.474;7.228;2023-02-26T07:31:38;-0.90;22.00
50969;DHT22;36982;51.474;7.228;2023-02-26T07:34:04;-0.90;19.70
50969;DHT22;36982;51.474;7.228;2023-02-26T07:36:29;-0.90;23.30
50969;DHT22;36982;51.474;7.228;2023-02-26T07:38:55;-0.90;22.20
50969;DHT22;36982;51.474;7.228;2023-02-26T07:41:21;-0.80;24.80
50969;DHT22;36982;51.474;7.228;2023-02-26T07:43:46;-0.70;17.70
50969;DHT22;36982;51.474;7.228;2023-02-26T07:46:12;-0.70;16.20
50969;DHT22;36982;51.474;7.228;2023-02-26T07:48:38;-0.70;13.50
50969;DHT22;36982;51.474;7.228;2023-02-26T07:51:04;-0.70;15.40
50969;DHT22;36982;51.474;7.228;2023-02-26T07:53:31;-0.70;16.80
50969;DHT22;36982;51.474;7.228;2023-02-26T07:55:57;-0.50;19.60
50969;DHT22;36982;51.474;7.228;2023-02-26T07:58:22;-0.50;5.30
50969;DHT22;36982;51.474;7.228;2023-02-26T08:00:48;-0.50;12.30
50969;DHT22;36982;51.474;7.228;2023-02-26T08:03:14;-0.50;1.00
50969;DHT22;36982;51.474;7.228;2023-02-26T08:05:40;-0.40;1.00
50969;DHT22;36982;51.474;7.228;2023-02-26T08:08:05;-0.40;1.00
50969;DHT22;36982;51.474;7.228;2023-02-26T08:10:31;-0.30;1.00
50969;DHT22;36982;51.474;7.228;2023-02-26T08:12:57;-0.20;1.00
50969;DHT22;36982;51.474;7.228;2023-02-26T08:15:22;-0.20;1.00
50969;DHT22;36982;51.474;7.228;2023-02-26T08:17:51;-0.10;1.00
50969;DHT22;36982;51.474;7.228;2023-02-26T08:20:17;-0.10;1.00
50969;DHT22;36982;51.474;7.228;2023-02-26T08:22:42;-0.10;1.00
50969;DHT22;36982;51.474;7.228;2023-02-26T08:25:08;-0.10;1.00
50969;DHT22;36982;51.474;7.228;2023-02-26T08:27:33;0.00;1.00
50969;DHT22;36982;51.474;7.228;2023-02-26T08:29:59;0.00;1.00
50969;DHT22;36982;51.474;7.228;2023-02-26T08:32:26;0.10;1.00
50969;DHT22;36982;51.474;7.228;2023-02-26T08:34:52;0.20;1.00
50969;DHT22;36982;51.474;7.228;2023-02-26T08:37:18;0.20;1.00
50969;DHT22;36982;51.474;7.228;2023-02-26T08:39:46;0.20;1.00
50969;DHT22;36982;51.474;7.228;2023-02-26T08:42:11;0.20;1.00
50969;DHT22;36982;51.474;7.228;2023-02-26T08:44:41;0.20;1.00
50969;DHT22;36982;51.474;7.228;2023-02-26T08:47:07;0.30;1.00
50969;DHT22;36982;51.474;7.228;2023-02-26T08:49:32;0.30;1.00
50969;DHT22;36982;51.474;7.228;2023-02-26T08:51:58;0.40;1.00
50969;DHT22;36982;51.474;7.228;2023-02-26T08:54:24;0.50;1.00
50969;DHT22;36982;51.474;7.228;2023-02-26T08:56:50;0.50;1.00
50969;DHT22;36982;51.474;7.228;2023-02-26T08:59:15;0.50;99.90
50969;DHT22;36982;51.474;7.228;2023-02-26T09:01:41;0.60;1.00
50969;DHT22;36982;51.474;7.228;2023-02-26T09:04:06;0.70;99.90
50969;DHT22;36982;51.474;7.228;2023-02-26T09:06:32;0.70;99.90
50969;DHT22;36982;51.474;7.228;2023-02-26T09:08:57;0.80;99.90
50969;DHT22;36982;51.474;7.228;2023-02-26T09:11:23;0.80;99.90
50969;DHT22;36982;51.474;7.228;2023-02-26T09:13:49;0.90;99.90
50969;DHT22;36982;51.474;7.228;2023-02-26T09:16:14;0.90;99.90
50969;DHT22;36982;51.474;7.228;2023-02-26T09:18:41;1.00;99.90
50969;DHT22;36982;51.474;7.228;2023-02-26T09:21:06;1.00;99.90
50969;DHT22;36982;51.474;7.228;2023-02-26T09:23:32;1.00;99.90
50969;DHT22;36982;51.474;7.228;2023-02-26T09:25:57;1.00;99.90
50969;DHT22;36982;51.474;7.228;2023-02-26T09:28:24;1.20;99.90
50969;DHT22;36982;51.474;7.228;2023-02-26T09:30:53;1.20;99.90
50969;DHT22;36982;51.474;7.228;2023-02-26T09:33:19;1.20;99.90
50969;DHT22;36982;51.474;7.228;2023-02-26T09:35:47;1.20;99.90
50969;DHT22;36982;51.474;7.228;2023-02-26T09:38:13;1.20;99.90
50969;DHT22;36982;51.474;7.228;2023-02-26T09:43:21;1.30;99.90
50969;DHT22;36982;51.474;7.228;2023-02-26T09:45:55;1.40;99.90
50969;DHT22;36982;51.474;7.228;2023-02-26T09:48:23;1.50;96.30
50969;DHT22;36982;51.474;7.228;2023-02-26T09:50:55;1.50;17.70
50969;DHT22;36982;51.474;7.228;2023-02-26T09:55:51;1.40;1.00
50969;DHT22;36982;51.474;7.228;2023-02-26T09:58:37;1.40;1.00
50969;DHT22;36982;51.474;7.228;2023-02-26T10:01:13;1.50;1.00
50969;DHT22;36982;51.474;7.228;2023-02-26T10:12:23;1.80;99.90
50969;DHT22;36982;51.474;7.228;2023-02-26T10:15:01;1.80;1.00
50969;DHT22;36982;51.474;7.228;2023-02-26T10:17:38;1.80;99.90
50969;DHT22;36982;51.474;7.228;2023-02-26T10:20:18;1.80;99.90
50969;DHT22;36982;51.474;7.228;2023-02-26T10:22:46;1.80;99.90
50969;DHT22;36982;51.474;7.228;2023-02-26T10:25:21;1.80;30.00
50969;DHT22;36982;51.474;7.228;2023-02-26T10:30:35;1.80;99.90
50969;DHT22;36982;51.474;7.228;2023-02-26T10:36:28;1.80;55.20
50969;DHT22;36982;51.474;7.228;2023-02-26T10:39:03;1.90;18.00
50969;DHT22;36982;51.474;7.228;2023-02-26T10:41:30;2.00;28.10
50969;DHT22;36982;51.474;7.228;2023-02-26T10:44:27;2.00;1.00
50969;DHT22;36982;51.474;7.228;2023-02-26T10:49:55;2.00;1.00
50969;DHT22;36982;51.474;7.228;2023-02-26T10:52:25;2.00;99.90
50969;DHT22;36982;51.474;7.228;2023-02-26T10:57:42;2.20;99.90
50969;DHT22;36982;51.474;7.228;2023-02-26T11:00:18;2.20;99.90
50969;DHT22;36982;51.474;7.228;2023-02-26T11:02:49;2.30;99.90
50969;DHT22;36982;51.474;7.228;2023-02-26T11:05:24;2.30;1.00
50969;DHT22;36982;51.474;7.228;2023-02-26T11:07:54;2.30;1.00
50969;DHT22;36982;51.474;7.228;2023-02-26T11:10:24;2.30;99.90
50969;DHT22;36982;51.474;7.228;2023-02-26T11:12:51;2.30;22.30
50969;DHT22;36982;51.474;7.228;2023-02-26T11:15:20;2.30;1.00
50969;DHT22;36982;51.474;7.228;2023-02-26T11:17:53;2.20;99.90
50969;DHT22;36982;51.474;7.228;2023-02-26T11:20:40;2.10;1.00
50969;DHT22;36982;51.474;7.228;2023-02-26T11:23:11;2.20;1.00
50969;DHT22;36982;51.474;7.228;2023-02-26T11:25:38;2.30;99.90
50969;DHT22;36982;51.474;7.228;2023-02-26T11:28:20;2.30;99.90
50969;DHT22;36982;51.474;7.228;2023-02-26T11:30:46;2.40;91.10
50969;DHT22;36982;51.474;7.228;2023-02-26T11:33:38;2.40;1.00
50969;DHT22;36982;51.474;7.228;2023-02-26T11:36:11;2.50;1.00
50969;DHT22;36982;51.474;7.228;2023-02-26T11:38:38;2.50;1.00
50969;DHT22;36982;51.474;7.228;2023-02-26T11:41:04;2.50;99.90
50969;DHT22;36982;51.474;7.228;2023-02-26T11:43:41;2.50;99.90
50969;DHT22;36982;51.474;7.228;2023-02-26T11:46:09;2.50;99.90
50969;DHT22;36982;51.474;7.228;2023-02-26T11:48:42;2.50;99.90
50969;DHT22;36982;51.474;7.228;2023-02-26T11:51:15;2.50;99.90
50969;DHT22;36982;51.474;7.228;2023-02-26T11:53:59;2.50;99.90
50969;DHT22;36982;51.474;7.228;2023-02-26T11:56:38;2.50;99.90
50969;DHT22;36982;51.474;7.228;2023-02-26T11:59:23;2.50;99.90
50969;DHT22;36982;51.474;7.228;2023-02-26T12:01:50;2.50;73.60
50969;DHT22;36982;51.474;7.228;2023-02-26T12:04:22;2.60;85.40
50969;DHT22;36982;51.474;7.228;2023-02-26T12:06:53;2.60;57.10
50969;DHT22;36982;51.474;7.228;2023-02-26T12:09:19;2.60;1.00
50969;DHT22;36982;51.474;7.228;2023-02-26T12:14:46;2.60;1.00
50969;DHT22;36982;51.474;7.228;2023-02-26T12:17:33;2.60;1.00
50969;DHT22;36982;51.474;7.228;2023-02-26T12:33:59;2.70;92.60
50969;DHT22;36982;51.474;7.228;2023-02-26T12:45:34;2.80;1.00
50969;DHT22;36982;51.474;7.228;2023-02-26T13:04:25;3.20;1.00
50969;DHT22;36982;51.474;7.228;2023-02-26T13:13:10;3.40;1.00
50969;DHT22;36982;51.474;7.228;2023-02-26T13:18:34;3.40;99.90
50969;DHT22;36982;51.474;7.228;2023-02-26T13:21:05;3.30;99.90
50969;DHT22;36982;51.474;7.228;2023-02-26T13:23:46;3.40;99.90
50969;DHT22;36982;51.474;7.228;2023-02-26T13:26:13;3.40;99.90
50969;DHT22;36982;51.474;7.228;2023-02-26T13:28:41;3.40;99.90
50969;DHT22;36982;51.474;7.228;2023-02-26T13:31:12;3.50;1.00
50969;DHT22;36982;51.474;7.228;2023-02-26T13:33:40;3.40;99.90
50969;DHT22;36982;51.474;7.228;2023-02-26T13:36:07;3.30;99.90
50969;DHT22;36982;51.474;7.228;2023-02-26T13:42:32;3.30;99.90
50969;DHT22;36982;51.474;7.228;2023-02-26T13:49:54;3.40;99.90
50969;DHT22;36982;51.474;7.228;2023-02-26T13:52:27;3.40;99.90
50969;DHT22;36982;51.474;7.228;2023-02-26T13:54:57;3.50;99.90
50969;DHT22;36982;51.474;7.228;2023-02-26T13:57:48;3.60;99.90
50969;DHT22;36982;51.474;7.228;2023-02-26T14:00:30;3.60;99.90
50969;DHT22;36982;51.474;7.228;2023-02-26T14:03:10;3.70;99.90
50969;DHT22;36982;51.474;7.228;2023-02-26T14:08:18;4.00;99.90
50969;DHT22;36982;51.474;7.228;2023-02-26T14:10:57;3.90;99.90
50969;DHT22;36982;51.474;7.228;2023-02-26T14:13:38;3.70;99.90
50969;DHT22;36982;51.474;7.228;2023-02-26T14:16:22;3.60;99.90
50969;DHT22;36982;51.474;7.228;2023-02-26T14:18:50;3.60;99.90
50969;DHT22;36982;51.474;7.228;2023-02-26T14:21:35;3.60;99.90
50969;DHT22;36982;51.474;7.228;2023-02-26T14:26:35;3.50;99.90
50969;DHT22;36982;51.474;7.228;2023-02-26T14:34:19;3.50;99.90
50969;DHT22;36982;51.474;7.228;2023-02-26T14:36:55;3.50;99.90
50969;DHT22;36982;51.474;7.228;2023-02-26T14:39:42;3.50;99.90
50969;DHT22;36982;51.474;7.228;2023-02-26T14:42:32;3.50;99.90
50969;DHT22;36982;51.474;7.228;2023-02-26T14:45:27;3.60;99.90
50969;DHT22;36982;51.474;7.228;2023-02-26T14:47:54;3.60;99.90
50969;DHT22;36982;51.474;7.228;2023-02-26T14:50:21;3.60;99.90
50969;DHT22;36982;51.474;7.228;2023-02-26T14:53:04;3.60;99.90
50969;DHT22;36982;51.474;7.228;2023-02-26T14:56:03;3.60;99.90
50969;DHT22;36982;51.474;7.228;2023-02-26T14:58:37;3.50;99.90
50969;DHT22;36982;51.474;7.228;2023-02-26T15:01:34;3.60;99.90
50969;DHT22;36982;51.474;7.228;2023-02-26T15:06:50;3.50;99.90
50969;DHT22;36982;51.474;7.228;2023-02-26T15:09:32;3.50;99.90
50969;DHT22;36982;51.474;7.228;2023-02-26T15:15:04;3.50;99.90
50969;DHT22;36982;51.474;7.228;2023-02-26T15:17:54;3.60;99.90
50969;DHT22;36982;51.474;7.228;2023-02-26T15:20:35;3.60;99.90
50969;DHT22;36982;51.474;7.228;2023-02-26T15:25:59;3.60;99.90
50969;DHT22;36982;51.474;7.228;2023-02-26T15:28:29;3.60;99.90
50969;DHT22;36982;51.474;7.228;2023-02-26T15:30:55;3.50;99.90
50969;DHT22;36982;51.474;7.228;2023-02-26T15:33:23;3.50;99.90
50969;DHT22;36982;51.474;7.228;2023-02-26T15:35:50;3.60;99.90
50969;DHT22;36982;51.474;7.228;2023-02-26T15:38:16;3.70;99.90
50969;DHT22;36982;51.474;7.228;2023-02-26T15:40:42;3.70;99.90
50969;DHT22;36982;51.474;7.228;2023-02-26T15:43:13;3.50;99.90
50969;DHT22;36982;51.474;7.228;2023-02-26T15:45:42;3.60;99.90
50969;DHT22;36982;51.474;7.228;2023-02-26T15:48:35;3.60;99.90
50969;DHT22;36982;51.474;7.228;2023-02-26T15:51:01;3.50;99.90
50969;DHT22;36982;51.474;7.228;2023-02-26T15:53:35;3.50;99.90
50969;DHT22;36982;51.474;7.228;2023-02-26T15:56:04;3.50;99.90
50969;DHT22;36982;51.474;7.228;2023-02-26T15:58:41;3.50;99.90
50969;DHT22;36982;51.474;7.228;2023-02-26T16:01:16;3.50;99.90
50969;DHT22;36982;51.474;7.228;2023-02-26T16:03:43;3.50;99.90
50969;DHT22;36982;51.474;7.228;2023-02-26T16:06:15;3.50;99.90
50969;DHT22;36982;51.474;7.228;2023-02-26T16:08:41;3.50;99.90
50969;DHT22;36982;51.474;7.228;2023-02-26T16:11:08;3.50;99.90
50969;DHT22;36982;51.474;7.228;2023-02-26T16:13:36;3.30;99.90
50969;DHT22;36982;51.474;7.228;2023-02-26T16:16:14;3.50;99.90
50969;DHT22;36982;51.474;7.228;2023-02-26T16:18:40;3.40;99.90
50969;DHT22;36982;51.474;7.228;2023-02-26T16:21:08;3.50;99.90
50969;DHT22;36982;51.474;7.228;2023-02-26T16:23:42;3.40;99.90
50969;DHT22;36982;51.474;7.228;2023-02-26T16:26:18;3.40;99.90
50969;DHT22;36982;51.474;7.228;2023-02-26T16:28:45;3.50;99.90
50969;DHT22;36982;51.474;7.228;2023-02-26T16:31:18;3.50;99.90
50969;DHT22;36982;51.474;7.228;2023-02-26T16:36:25;3.50;99.90
50969;DHT22;36982;51.474;7.228;2023-02-26T16:38:59;3.50;99.90
50969;DHT22;36982;51.474;7.228;2023-02-26T16:41:28;3.40;99.90
50969;DHT22;36982;51.474;7.228;2023-02-26T16:44:36;3.40;99.90
50969;DHT22;36982;51.474;7.228;2023-02-26T16:46:53;3.40;99.90
50969;DHT22;36982;51.474;7.228;2023-02-26T16:49:23;3.40;99.90
50969;DHT22;36982;51.474;7.228;2023-02-26T16:51:50;3.30;99.90
50969;DHT22;36982;51.474;7.228;2023-02-26T16:54:41;3.30;99.90
50969;DHT22;36982;51.474;7.228;2023-02-26T16:57:24;3.20;99.90
50969;DHT22;36982;51.474;7.228;2023-02-26T16:59:55;3.20;99.90
50969;DHT22;36982;51.474;7.228;2023-02-26T17:02:25;3.20;99.90
50969;DHT22;36982;51.474;7.228;2023-02-26T17:04:56;3.10;99.90
50969;DHT22;36982;51.474;7.228;2023-02-26T17:07:32;3.10;99.90
50969;DHT22;36982;51.474;7.228;2023-02-26T17:10:06;3.10;99.90
50969;DHT22;36982;51.474;7.228;2023-02-26T17:15:34;3.00;99.90
50969;DHT22;36982;51.474;7.228;2023-02-26T17:17:57;3.00;99.90
50969;DHT22;36982;51.474;7.228;2023-02-26T17:20:25;3.00;99.90
50969;DHT22;36982;51.474;7.228;2023-02-26T17:22:51;3.00;99.90
50969;DHT22;36982;51.474;7.228;2023-02-26T17:25:18;3.00;99.90
50969;DHT22;36982;51.474;7.228;2023-02-26T17:27:45;3.00;99.90
50969;DHT22;36982;51.474;7.228;2023-02-26T17:30:17;3.00;99.90
50969;DHT22;36982;51.474;7.228;2023-02-26T17:32:44;2.90;99.90
50969;DHT22;36982;51.474;7.228;2023-02-26T17:35:14;2.90;99.90
50969;DHT22;36982;51.474;7.228;2023-02-26T17:37:41;2.90;99.90
50969;DHT22;36982;51.474;7.228;2023-02-26T17:40:23;2.90;99.90
50969;DHT22;36982;51.474;7.228;2023-02-26T17:42:49;2.90;99.90
50969;DHT22;36982;51.474;7.228;2023-02-26T17:45:16;3.00;99.90
50969;DHT22;36982;51.474;7.228;2023-02-26T17:47:42;2.90;99.90
50969;DHT22;36982;51.474;7.228;2023-02-26T17:50:30;2.90;99.90
50969;DHT22;36982;51.474;7.228;2023-02-26T17:53:03;2.90;99.90
50969;DHT22;36982;51.474;7.228;2023-02-26T17:55:29;2.90;99.90
50969;DHT22;36982;51.474;7.228;2023-02-26T17:57:55;2.90;99.90
50969;DHT22;36982;51.474;7.228;2023-02-26T18:00:23;2.90;99.90
50969;DHT22;36982;51.474;7.228;2023-02-26T18:02:49;2.90;99.90
50969;DHT22;36982;51.474;7.228;2023-02-26T18:05:16;2.90;1.00
50969;DHT22;36982;51.474;7.228;2023-02-26T18:07:43;2.90;1.00
50969;DHT22;36982;51.474;7.228;2023-02-26T18:10:16;2.90;1.00
50969;DHT22;36982;51.474;7.228;2023-02-26T18:12:42;2.90;1.00
50969;DHT22;36982;51.474;7.228;2023-02-26T18:15:08;2.90;1.00
50969;DHT22;36982;51.474;7.228;2023-02-26T18:17:35;2.90;1.00
50969;DHT22;36982;51.474;7.228;2023-02-26T18:20:02;2.90;1.00
50969;DHT22;36982;51.474;7.228;2023-02-26T18:22:29;2.90;1.00
50969;DHT22;36982;51.474;7.228;2023-02-26T18:24:55;2.90;1.00
50969;DHT22;36982;51.474;7.228;2023-02-26T18:27:23;2.90;1.00
50969;DHT22;36982;51.474;7.228;2023-02-26T18:29:49;2.90;1.00
50969;DHT22;36982;51.474;7.228;2023-02-26T18:32:17;3.00;1.00
50969;DHT22;36982;51.474;7.228;2023-02-26T18:34:43;3.00;1.00
50969;DHT22;36982;51.474;7.228;2023-02-26T18:37:14;3.00;1.00
50969;DHT22;36982;51.474;7.228;2023-02-26T18:39:41;3.00;1.00
50969;DHT22;36982;51.474;7.228;2023-02-26T18:42:19;2.90;1.00
50969;DHT22;36982;51.474;7.228;2023-02-26T18:44:46;3.00;1.00
50969;DHT22;36982;51.474;7.228;2023-02-26T18:47:11;3.00;1.10
50969;DHT22;36982;51.474;7.228;2023-02-26T18:49:37;3.00;5.60
50969;DHT22;36982;51.474;7.228;2023-02-26T18:52:03;3.00;12.60
50969;DHT22;36982;51.474;7.228;2023-02-26T18:54:28;3.00;18.20
50969;DHT22;36982;51.474;7.228;2023-02-26T18:56:54;3.00;35.80
50969;DHT22;36982;51.474;7.228;2023-02-26T18:59:19;3.00;48.40
50969;DHT22;36982;51.474;7.228;2023-02-26T19:01:45;3.00;81.40